createdAt,value
2023-03-04T00:00:20.603Z,623.55
2023-03-04T00:01:20.596Z,623.64
2023-03-04T00:02:20.660Z,623.37
2023-03-04T00:03:20.653Z,623.73
2023-03-04T00:04:20.574Z,623.84
2023-03-04T00:05:20.561Z,625.37
2023-03-04T00:06:20.528Z,625.12
2023-03-04T00:07:20.521Z,624.55
2023-03-04T00:08:20.517Z,625.93
2023-03-04T00:09:20.502Z,627.74
2023-03-04T00:10:20.486Z,626.29
2023-03-04T00:11:20.492Z,625.48
2023-03-04T00:12:20.462Z,626.89
2023-03-04T00:13:20.454Z,628.90
2023-03-04T00:14:20.455Z,628.44
2023-03-04T00:15:20.440Z,627.26
2023-03-04T00:16:20.520Z,626.97
2023-03-04T00:17:20.440Z,628.49
2023-03-04T00:18:20.416Z,629.95
2023-03-04T00:19:20.408Z,630.11
2023-03-04T00:20:20.391Z,629.22
2023-03-04T00:21:20.369Z,629.30
2023-03-04T00:22:20.386Z,629.20
2023-03-04T00:23:20.345Z,629.74
2023-03-04T00:24:20.335Z,628.42
2023-03-04T00:25:20.323Z,627.45
2023-03-04T00:26:20.324Z,628.19
2023-03-04T00:27:20.313Z,629.81
2023-03-04T00:28:20.293Z,630.88
2023-03-04T00:29:20.302Z,629.99
2023-03-04T00:30:20.285Z,628.43
2023-03-04T00:31:20.327Z,627.96
2023-03-04T00:32:20.325Z,626.21
2023-03-04T00:33:20.258Z,625.71
2023-03-04T00:34:20.231Z,625.65
2023-03-04T00:35:20.333Z,623.49
2023-03-04T00:36:20.253Z,623.49
2023-03-04T00:37:20.191Z,623.38
2023-03-04T00:38:20.190Z,623.14
2023-03-04T00:39:20.195Z,623.05
2023-03-04T00:40:20.176Z,623.00
2023-03-04T00:41:20.154Z,623.03
2023-03-04T00:42:20.153Z,623.11
2023-03-04T00:43:27.152Z,623.10
2023-03-04T00:44:20.136Z,623.11
2023-03-04T00:45:20.125Z,623.08
2023-03-04T00:46:20.158Z,623.11
2023-03-04T00:47:20.080Z,623.17
2023-03-04T00:48:20.076Z,623.23
2023-03-04T00:49:20.171Z,623.45
2023-03-04T00:50:20.063Z,624.02
2023-03-04T00:51:20.061Z,625.16
2023-03-04T00:52:20.047Z,627.72
2023-03-04T00:53:20.018Z,629.58
2023-03-04T00:54:20.019Z,629.41
2023-03-04T00:55:20.008Z,629.71
2023-03-04T00:56:20.002Z,628.59
2023-03-04T00:57:19.986Z,628.56
2023-03-04T00:58:19.973Z,628.44
2023-03-04T00:59:19.966Z,627.16
2023-03-04T01:00:19.984Z,625.74
2023-03-04T01:01:19.964Z,626.37
2023-03-04T01:02:19.964Z,625.52
2023-03-04T01:03:19.909Z,625.22
2023-03-04T01:04:19.907Z,623.62
2023-03-04T01:05:19.903Z,623.14
2023-03-04T01:06:19.880Z,623.18
2023-03-04T01:07:19.900Z,623.13
2023-03-04T01:08:19.867Z,623.15
2023-03-04T01:09:19.863Z,623.07
2023-03-04T01:10:19.840Z,623.08
2023-03-04T01:11:19.826Z,623.24
2023-03-04T01:12:19.816Z,623.59
2023-03-04T01:13:19.803Z,624.96
2023-03-04T01:14:19.818Z,624.81
2023-03-04T01:15:19.777Z,624.96
2023-03-04T01:16:19.811Z,624.95
2023-03-04T01:17:19.765Z,625.64
2023-03-04T01:18:19.785Z,625.15
2023-03-04T01:19:19.743Z,625.47
2023-03-04T01:20:19.732Z,625.35
2023-03-04T01:21:19.717Z,624.81
2023-03-04T01:22:19.718Z,625.97
2023-03-04T01:23:19.716Z,626.79
2023-03-04T01:24:19.692Z,625.61
2023-03-04T01:25:19.709Z,625.74
2023-03-04T01:26:19.664Z,625.60
2023-03-04T01:27:19.660Z,627.11
2023-03-04T01:28:19.663Z,626.87
2023-03-04T01:29:19.637Z,626.92
2023-03-04T01:30:19.665Z,626.93
2023-03-04T01:31:19.626Z,627.86
2023-03-04T01:32:19.650Z,627.98
2023-03-04T01:33:19.586Z,627.24
2023-03-04T01:34:19.577Z,626.61
2023-03-04T01:35:19.652Z,626.84
2023-03-04T01:36:19.569Z,627.77
2023-03-04T01:37:19.553Z,629.24
2023-03-04T01:38:19.549Z,630.96
2023-03-04T01:39:19.560Z,629.35
2023-03-04T01:40:19.523Z,627.96
2023-03-04T01:41:19.517Z,627.13
2023-03-04T01:42:19.510Z,626.88
2023-03-04T01:43:19.499Z,626.38
2023-03-04T01:44:19.472Z,627.44
2023-03-04T01:45:19.473Z,629.15
2023-03-04T01:46:19.477Z,629.35
2023-03-04T01:47:19.458Z,629.17
2023-03-04T01:48:19.431Z,628.87
2023-03-04T01:49:19.417Z,629.53
2023-03-04T01:50:19.424Z,630.28
2023-03-04T01:51:19.405Z,630.42
2023-03-04T01:52:19.387Z,631.35
2023-03-04T01:53:19.373Z,631.33
2023-03-04T01:54:19.391Z,631.26
2023-03-04T01:55:19.375Z,631.15
2023-03-04T01:56:19.352Z,630.91
2023-03-04T01:57:19.362Z,630.10
2023-03-04T01:58:19.327Z,630.25
2023-03-04T01:59:19.338Z,631.09
2023-03-04T02:00:19.328Z,631.51
2023-03-04T02:01:19.346Z,631.53
2023-03-04T02:02:19.285Z,631.49
2023-03-04T02:03:19.272Z,631.93
2023-03-04T02:04:19.306Z,631.18
2023-03-04T02:05:19.266Z,631.41
2023-03-04T02:06:19.238Z,631.64
2023-03-04T02:07:19.226Z,632.23
2023-03-04T02:08:19.228Z,632.29
2023-03-04T02:09:19.249Z,632.08
2023-03-04T02:10:19.200Z,631.44
2023-03-04T02:11:19.207Z,632.31
2023-03-04T02:12:19.184Z,630.75
2023-03-04T02:13:19.176Z,631.09
2023-03-04T02:14:19.162Z,630.67
2023-03-04T02:15:19.151Z,627.27
2023-03-04T02:16:19.206Z,627.04
2023-03-04T02:17:19.135Z,628.24
2023-03-04T02:18:19.282Z,630.22
2023-03-04T02:19:19.116Z,629.75
2023-03-04T02:20:19.106Z,628.96
2023-03-04T02:21:19.083Z,629.99
2023-03-04T02:22:19.076Z,629.83
2023-03-04T02:23:19.099Z,630.50
2023-03-04T02:24:19.049Z,631.62
2023-03-04T02:25:19.031Z,631.05
2023-03-04T02:26:19.027Z,628.21
2023-03-04T02:27:21.893Z,625.34
2023-03-04T02:28:19.024Z,625.24
2023-03-04T02:29:18.991Z,625.52
2023-03-04T02:30:19.011Z,624.46
2023-03-04T02:31:19.003Z,623.91
2023-03-04T02:32:19.060Z,624.10
2023-03-04T02:33:18.957Z,624.74
2023-03-04T02:34:18.958Z,624.86
2023-03-04T02:35:18.936Z,625.55
2023-03-04T02:36:18.949Z,625.14
2023-03-04T02:37:18.933Z,624.81
2023-03-04T02:38:18.914Z,625.01
2023-03-04T02:39:18.882Z,624.09
2023-03-04T02:40:18.887Z,624.41
2023-03-04T02:41:18.907Z,625.30
2023-03-04T02:42:18.880Z,625.69
2023-03-04T02:43:18.872Z,625.90
2023-03-04T02:44:26.419Z,625.27
2023-03-04T02:45:18.819Z,625.82
2023-03-04T02:46:18.869Z,624.62
2023-03-04T02:47:18.812Z,623.69
2023-03-04T02:48:18.805Z,623.57
2023-03-04T02:49:18.773Z,624.67
2023-03-04T02:50:18.779Z,624.96
2023-03-04T02:51:18.769Z,624.76
2023-03-04T02:52:18.748Z,625.36
2023-03-04T02:53:18.734Z,625.74
2023-03-04T02:54:18.739Z,625.95
2023-03-04T02:55:18.740Z,625.30
2023-03-04T02:56:18.707Z,624.49
2023-03-04T02:57:18.693Z,624.12
2023-03-04T02:58:18.683Z,624.92
2023-03-04T02:59:18.690Z,625.30
2023-03-04T03:00:18.678Z,625.29
2023-03-04T03:01:18.648Z,625.23
2023-03-04T03:02:18.640Z,624.23
2023-03-04T03:03:18.628Z,625.02
2023-03-04T03:04:18.639Z,625.38
2023-03-04T03:05:18.609Z,624.89
2023-03-04T03:06:18.602Z,625.04
2023-03-04T03:07:18.649Z,625.61
2023-03-04T03:08:18.581Z,626.16
2023-03-04T03:09:18.593Z,626.47
2023-03-04T03:10:18.556Z,626.88
2023-03-04T03:11:18.542Z,627.66
2023-03-04T03:12:18.540Z,628.34
2023-03-04T03:13:18.544Z,627.70
2023-03-04T03:14:18.554Z,629.16
2023-03-04T03:15:18.536Z,628.40
2023-03-04T03:16:18.575Z,627.25
2023-03-04T03:17:18.510Z,628.37
2023-03-04T03:18:18.472Z,627.85
2023-03-04T03:19:18.473Z,627.11
2023-03-04T03:20:18.502Z,626.24
2023-03-04T03:21:18.456Z,626.07
2023-03-04T03:22:18.430Z,626.51
2023-03-04T03:23:18.425Z,627.06
2023-03-04T03:24:18.433Z,627.74
2023-03-04T03:25:18.412Z,627.04
2023-03-04T03:26:18.410Z,626.63
2023-03-04T03:27:18.373Z,627.68
2023-03-04T03:28:18.359Z,627.10
2023-03-04T03:29:18.368Z,627.79
2023-03-04T03:30:18.340Z,627.54
2023-03-04T03:31:18.425Z,628.80
2023-03-04T03:32:18.365Z,628.72
2023-03-04T03:33:18.330Z,628.23
2023-03-04T03:34:18.331Z,627.88
2023-03-04T03:35:18.357Z,628.71
2023-03-04T03:36:18.371Z,628.22
2023-03-04T03:37:18.264Z,629.27
2023-03-04T03:38:18.261Z,630.13
2023-03-04T03:39:18.246Z,630.97
2023-03-04T03:40:18.261Z,631.35
2023-03-04T03:41:18.226Z,632.03
2023-03-04T03:42:18.222Z,630.44
2023-03-04T03:43:18.224Z,629.97
2023-03-04T03:44:18.194Z,630.43
2023-03-04T03:45:18.177Z,629.42
2023-03-04T03:46:18.170Z,630.89
2023-03-04T03:47:18.250Z,631.72
2023-03-04T03:48:18.144Z,631.31
2023-03-04T03:49:18.126Z,631.18
2023-03-04T03:50:18.142Z,632.30
2023-03-04T03:51:18.116Z,630.52
2023-03-04T03:52:18.138Z,630.58
2023-03-04T03:53:18.098Z,632.18
2023-03-04T03:54:18.092Z,630.19
2023-03-04T03:55:18.067Z,629.48
2023-03-04T03:56:18.062Z,630.25
2023-03-04T03:57:18.054Z,629.20
2023-03-04T03:58:18.034Z,629.85
2023-03-04T03:59:18.029Z,629.66
2023-03-04T04:00:18.049Z,629.97
2023-03-04T04:01:18.013Z,629.83
2023-03-04T04:02:18.114Z,628.89
2023-03-04T04:03:18.008Z,628.18
2023-03-04T04:04:17.988Z,627.12
2023-03-04T04:05:17.963Z,627.35
2023-03-04T04:06:17.960Z,627.66
2023-03-04T04:07:17.960Z,628.39
2023-03-04T04:08:17.968Z,628.42
2023-03-04T04:09:17.920Z,629.09
2023-03-04T04:10:17.940Z,629.06
2023-03-04T04:11:17.895Z,630.33
2023-03-04T04:12:17.918Z,628.62
2023-03-04T04:13:17.890Z,629.59
2023-03-04T04:14:17.877Z,629.34
2023-03-04T04:15:17.878Z,628.40
2023-03-04T04:16:17.879Z,628.88
2023-03-04T04:17:17.840Z,630.04
2023-03-04T04:18:17.830Z,631.03
2023-03-04T04:19:17.862Z,631.82
2023-03-04T04:20:17.814Z,630.57
2023-03-04T04:21:17.790Z,631.08
2023-03-04T04:22:17.795Z,631.96
2023-03-04T04:23:17.804Z,633.25
2023-03-04T04:24:17.755Z,634.85
2023-03-04T04:25:17.772Z,634.41
2023-03-04T04:26:17.744Z,634.68
2023-03-04T04:27:17.732Z,636.08
2023-03-04T04:28:17.712Z,636.09
2023-03-04T04:29:17.696Z,633.35
2023-03-04T04:30:17.689Z,633.13
2023-03-04T04:31:17.682Z,634.85
2023-03-04T04:32:17.732Z,634.98
2023-03-04T04:33:17.657Z,635.21
2023-03-04T04:34:17.651Z,635.88
2023-03-04T04:35:17.658Z,633.29
2023-03-04T04:36:17.646Z,633.79
2023-03-04T04:37:17.627Z,634.42
2023-03-04T04:38:17.606Z,636.12
2023-03-04T04:39:17.589Z,636.33
2023-03-04T04:40:17.581Z,637.24
2023-03-04T04:41:17.586Z,634.95
2023-03-04T04:42:17.562Z,632.02
2023-03-04T04:43:17.547Z,631.70
2023-03-04T04:44:17.549Z,632.95
2023-03-04T04:45:25.061Z,633.91
2023-03-04T04:46:17.549Z,636.35
2023-03-04T04:47:17.515Z,634.96
2023-03-04T04:48:17.493Z,634.96
2023-03-04T04:49:17.481Z,634.43
2023-03-04T04:50:17.467Z,636.21
2023-03-04T04:51:17.476Z,636.54
2023-03-04T04:52:17.465Z,637.11
2023-03-04T04:53:17.466Z,636.97
2023-03-04T04:54:17.475Z,636.82
2023-03-04T04:55:17.432Z,638.20
2023-03-04T04:56:17.399Z,638.08
2023-03-04T04:57:17.395Z,639.09
2023-03-04T04:58:17.378Z,638.88
2023-03-04T04:59:17.376Z,639.19
2023-03-04T05:00:17.374Z,638.63
2023-03-04T05:01:17.448Z,638.88
2023-03-04T05:02:17.335Z,638.05
2023-03-04T05:03:18.576Z,637.46
2023-03-04T05:04:17.327Z,638.81
2023-03-04T05:05:17.316Z,637.06
2023-03-04T05:06:17.307Z,636.45
2023-03-04T05:07:17.307Z,633.72
2023-03-04T05:08:17.279Z,631.83
2023-03-04T05:09:17.283Z,631.93
2023-03-04T05:10:17.255Z,632.23
2023-03-04T05:11:17.280Z,632.97
2023-03-04T05:12:17.239Z,634.26
2023-03-04T05:13:17.238Z,632.67
2023-03-04T05:14:17.212Z,630.70
2023-03-04T05:15:17.242Z,632.20
2023-03-04T05:16:17.401Z,632.74
2023-03-04T05:17:17.212Z,636.34
2023-03-04T05:18:17.198Z,635.57
2023-03-04T05:19:17.171Z,636.37
2023-03-04T05:20:17.153Z,636.22
2023-03-04T05:21:17.168Z,636.44
2023-03-04T05:22:17.125Z,636.78
2023-03-04T05:23:17.155Z,636.53
2023-03-04T05:24:17.123Z,636.81
2023-03-04T05:25:17.102Z,634.11
2023-03-04T05:26:17.123Z,635.15
2023-03-04T05:27:17.085Z,635.83
2023-03-04T05:28:17.078Z,635.10
2023-03-04T05:29:17.075Z,636.52
2023-03-04T05:30:17.056Z,635.76
2023-03-04T05:31:17.088Z,635.79
2023-03-04T05:32:17.035Z,637.23
2023-03-04T05:33:17.036Z,635.54
2023-03-04T05:34:17.002Z,635.68
2023-03-04T05:35:17.073Z,636.40
2023-03-04T05:36:17.022Z,636.98
2023-03-04T05:37:16.998Z,640.52
2023-03-04T05:38:16.959Z,636.18
2023-03-04T05:39:16.995Z,633.21
2023-03-04T05:40:16.942Z,634.38
2023-03-04T05:41:16.930Z,634.56
2023-03-04T05:42:16.912Z,632.62
2023-03-04T05:43:16.907Z,631.30
2023-03-04T05:44:16.912Z,631.02
2023-03-04T05:45:16.884Z,630.35
2023-03-04T05:46:16.952Z,631.93
2023-03-04T05:47:16.861Z,631.41
2023-03-04T05:48:16.878Z,634.09
2023-03-04T05:49:16.841Z,632.94
2023-03-04T05:50:16.832Z,633.77
2023-03-04T05:51:16.862Z,635.01
2023-03-04T05:52:16.815Z,636.67
2023-03-04T05:53:16.808Z,635.40
2023-03-04T05:54:16.796Z,633.26
2023-03-04T05:55:16.797Z,633.79
2023-03-04T05:56:16.790Z,633.55
2023-03-04T05:57:16.767Z,634.72
2023-03-04T05:58:16.744Z,633.35
2023-03-04T05:59:16.750Z,633.86
2023-03-04T06:00:16.719Z,635.92
2023-03-04T06:01:16.714Z,638.72
2023-03-04T06:02:16.727Z,638.59
2023-03-04T06:03:16.697Z,638.64
2023-03-04T06:04:16.690Z,636.83
2023-03-04T06:05:16.691Z,632.79
2023-03-04T06:06:16.656Z,633.70
2023-03-04T06:07:16.651Z,634.97
2023-03-04T06:08:16.633Z,637.37
2023-03-04T06:09:16.627Z,636.84
2023-03-04T06:10:16.632Z,637.60
2023-03-04T06:11:16.632Z,639.82
2023-03-04T06:12:16.608Z,640.66
2023-03-04T06:13:16.582Z,640.95
2023-03-04T06:14:16.655Z,643.39
2023-03-04T06:15:16.572Z,641.80
2023-03-04T06:16:16.611Z,638.14
2023-03-04T06:17:16.538Z,634.36
2023-03-04T06:18:16.528Z,633.48
2023-03-04T06:19:16.524Z,635.18
2023-03-04T06:20:16.518Z,637.04
2023-03-04T06:21:16.499Z,637.70
2023-03-04T06:22:16.487Z,638.44
2023-03-04T06:23:16.510Z,640.29
2023-03-04T06:24:16.464Z,642.66
2023-03-04T06:25:16.459Z,639.57
2023-03-04T06:26:16.459Z,637.30
2023-03-04T06:27:16.480Z,637.03
2023-03-04T06:28:16.428Z,635.12
2023-03-04T06:29:16.426Z,634.30
2023-03-04T06:30:16.401Z,635.87
2023-03-04T06:31:16.428Z,638.13
2023-03-04T06:32:16.458Z,638.50
2023-03-04T06:33:16.432Z,635.68
2023-03-04T06:34:16.354Z,633.43
2023-03-04T06:35:16.363Z,635.19
2023-03-04T06:36:16.412Z,636.63
2023-03-04T06:37:16.362Z,639.26
2023-03-04T06:38:16.323Z,640.12
2023-03-04T06:39:16.314Z,638.43
2023-03-04T06:40:16.298Z,631.60
2023-03-04T06:41:16.286Z,629.01
2023-03-04T06:42:16.302Z,629.23
2023-03-04T06:43:16.302Z,627.73
2023-03-04T06:44:16.303Z,627.30
2023-03-04T06:45:16.408Z,625.82
2023-03-04T06:46:23.800Z,625.60
2023-03-04T06:47:16.227Z,626.03
2023-03-04T06:48:16.205Z,625.71
2023-03-04T06:49:16.207Z,626.07
2023-03-04T06:50:16.195Z,623.80
2023-03-04T06:51:16.173Z,623.42
2023-03-04T06:52:16.157Z,623.83
2023-03-04T06:53:16.156Z,624.10
2023-03-04T06:54:16.154Z,624.16
2023-03-04T06:55:16.140Z,623.37
2023-03-04T06:56:16.189Z,623.46
2023-03-04T06:57:16.125Z,623.46
2023-03-04T06:58:16.108Z,623.86
2023-03-04T06:59:16.124Z,623.78
2023-03-04T07:00:16.096Z,624.38
2023-03-04T07:01:16.126Z,625.67
2023-03-04T07:02:16.063Z,626.08
2023-03-04T07:03:16.056Z,625.71
2023-03-04T07:04:16.118Z,625.45
2023-03-04T07:05:16.032Z,625.60
2023-03-04T07:06:16.011Z,626.06
2023-03-04T07:07:16.037Z,624.97
2023-03-04T07:08:15.998Z,623.86
2023-03-04T07:09:16.007Z,623.78
2023-03-04T07:10:15.981Z,625.35
2023-03-04T07:11:15.966Z,625.11
2023-03-04T07:12:15.950Z,624.76
2023-03-04T07:13:15.952Z,625.34
2023-03-04T07:14:15.921Z,626.80
2023-03-04T07:15:15.954Z,625.58
2023-03-04T07:16:15.967Z,625.75
2023-03-04T07:17:15.893Z,624.95
2023-03-04T07:18:15.931Z,624.18
2023-03-04T07:19:15.890Z,623.69
2023-03-04T07:20:15.860Z,623.49
2023-03-04T07:21:15.854Z,623.11
2023-03-04T07:22:15.867Z,623.07
2023-03-04T07:23:15.843Z,623.28
2023-03-04T07:24:15.826Z,623.67
2023-03-04T07:25:15.806Z,624.10
2023-03-04T07:26:15.797Z,624.48
2023-03-04T07:27:15.786Z,624.77
2023-03-04T07:28:15.773Z,625.47
2023-03-04T07:29:15.772Z,625.28
2023-03-04T07:30:15.778Z,623.82
2023-03-04T07:31:15.908Z,624.08
2023-03-04T07:32:15.893Z,623.77
2023-03-04T07:33:15.726Z,624.01
2023-03-04T07:34:15.711Z,623.95
2023-03-04T07:35:15.732Z,623.77
2023-03-04T07:36:15.688Z,623.87
2023-03-04T07:37:15.676Z,624.58
2023-03-04T07:38:15.665Z,625.33
2023-03-04T07:39:15.672Z,626.04
2023-03-04T07:40:15.658Z,627.81
2023-03-04T07:41:15.663Z,627.31
2023-03-04T07:42:15.634Z,627.12
2023-03-04T07:43:15.617Z,628.33
2023-03-04T07:44:15.609Z,624.37
2023-03-04T07:45:15.591Z,623.84
2023-03-04T07:46:15.606Z,625.35
2023-03-04T07:47:15.612Z,624.40
2023-03-04T07:48:15.573Z,624.17
2023-03-04T07:49:15.562Z,624.20
2023-03-04T07:50:17.907Z,624.56
2023-03-04T07:51:15.533Z,625.50
2023-03-04T07:52:15.510Z,625.33
2023-03-04T07:53:15.525Z,624.05
2023-03-04T07:54:15.502Z,623.27
2023-03-04T07:55:15.489Z,623.08
2023-03-04T07:56:15.478Z,623.50
2023-03-04T07:57:15.459Z,624.48
2023-03-04T07:58:15.447Z,623.86
2023-03-04T07:59:15.450Z,623.79
2023-03-04T08:00:15.436Z,624.03
2023-03-04T08:01:15.415Z,623.51
2023-03-04T08:02:15.452Z,623.57
2023-03-04T08:03:15.416Z,623.52
2023-03-04T08:04:15.450Z,623.30
2023-03-04T08:05:15.388Z,623.17
2023-03-04T08:06:15.363Z,623.04
2023-03-04T08:07:15.348Z,623.03
2023-03-04T08:08:17.297Z,622.99
2023-03-04T08:09:15.341Z,622.96
2023-03-04T08:10:15.334Z,622.97
2023-03-04T08:11:15.306Z,622.98
2023-03-04T08:12:15.310Z,622.93
2023-03-04T08:13:15.283Z,622.95
2023-03-04T08:14:16.062Z,622.94
2023-03-04T08:15:15.269Z,622.95
2023-03-04T08:16:15.304Z,622.93
2023-03-04T08:17:15.272Z,622.94
2023-03-04T08:18:15.229Z,622.93
2023-03-04T08:19:15.248Z,622.97
2023-03-04T08:20:15.228Z,622.96
2023-03-04T08:21:15.218Z,622.93
2023-03-04T08:22:15.208Z,622.93
2023-03-04T08:23:15.188Z,622.94
2023-03-04T08:24:15.179Z,622.93
2023-03-04T08:25:15.154Z,622.94
2023-03-04T08:26:15.161Z,622.94
2023-03-04T08:27:15.140Z,622.98
2023-03-04T08:28:15.118Z,622.94
2023-03-04T08:29:15.123Z,622.97
2023-03-04T08:30:15.111Z,622.98
2023-03-04T08:31:15.222Z,622.98
2023-03-04T08:32:15.330Z,622.95
2023-03-04T08:33:15.068Z,622.94
2023-03-04T08:34:15.060Z,622.94
2023-03-04T08:35:15.074Z,622.98
2023-03-04T08:36:15.035Z,622.98
2023-03-04T08:37:15.039Z,622.97
2023-03-04T08:38:15.035Z,622.96
2023-03-04T08:39:15.009Z,622.96
2023-03-04T08:40:14.996Z,622.97
2023-03-04T08:41:14.981Z,622.97
2023-03-04T08:42:14.985Z,622.98
2023-03-04T08:43:14.972Z,622.99
2023-03-04T08:44:14.975Z,622.97
2023-03-04T08:45:14.939Z,622.98
2023-03-04T08:46:15.082Z,622.93
2023-03-04T08:47:22.425Z,622.99
2023-03-04T08:48:14.917Z,622.94
2023-03-04T08:49:14.922Z,622.95
2023-03-04T08:50:14.881Z,622.94
2023-03-04T08:51:14.917Z,622.93
2023-03-04T08:52:14.859Z,622.94
2023-03-04T08:53:14.863Z,622.94
2023-03-04T08:54:14.851Z,622.94
2023-03-04T08:55:14.823Z,622.97
2023-03-04T08:56:14.826Z,622.95
2023-03-04T08:57:14.816Z,622.92
2023-03-04T08:58:14.821Z,622.88
2023-03-04T08:59:14.788Z,622.92
2023-03-04T09:00:14.782Z,622.93
2023-03-04T09:01:14.778Z,622.95
2023-03-04T09:02:14.775Z,622.94
2023-03-04T09:03:14.816Z,622.92
2023-03-04T09:04:14.762Z,622.94
2023-03-04T09:05:14.730Z,622.94
2023-03-04T09:06:14.710Z,622.93
2023-03-04T09:07:14.725Z,622.92
2023-03-04T09:08:14.709Z,622.93
2023-03-04T09:09:14.674Z,622.91
2023-03-04T09:10:14.661Z,622.95
2023-03-04T09:11:14.663Z,622.95
2023-03-04T09:12:14.657Z,622.97
2023-03-04T09:13:14.662Z,622.95
2023-03-04T09:14:14.637Z,622.94
2023-03-04T09:15:14.621Z,622.96
2023-03-04T09:16:14.689Z,622.97
2023-03-04T09:17:14.584Z,622.97
2023-03-04T09:18:14.638Z,622.94
2023-03-04T09:19:14.571Z,622.94
2023-03-04T09:20:14.568Z,622.93
2023-03-04T09:21:14.564Z,622.95
2023-03-04T09:22:14.546Z,622.96
2023-03-04T09:23:14.549Z,622.94
2023-03-04T09:24:14.531Z,622.95
2023-03-04T09:25:14.537Z,622.91
2023-03-04T09:26:14.491Z,622.93
2023-03-04T09:27:14.500Z,622.93
2023-03-04T09:28:14.479Z,622.92
2023-03-04T09:29:14.468Z,622.91
2023-03-04T09:30:14.455Z,622.92
2023-03-04T09:31:14.572Z,622.97
2023-03-04T09:32:14.495Z,622.98
2023-03-04T09:33:14.445Z,622.97
2023-03-04T09:34:14.458Z,622.93
2023-03-04T09:35:14.389Z,622.93
2023-03-04T09:36:14.420Z,622.92
2023-03-04T09:37:14.378Z,622.92
2023-03-04T09:38:14.373Z,622.90
2023-03-04T09:39:14.369Z,622.95
2023-03-04T09:40:14.340Z,622.91
2023-03-04T09:41:14.330Z,622.90
2023-03-04T09:42:14.324Z,622.90
2023-03-04T09:43:14.594Z,622.91
2023-03-04T09:44:14.300Z,622.91
2023-03-04T09:45:14.299Z,622.92
2023-03-04T09:46:14.295Z,622.96
2023-03-04T09:47:14.260Z,622.95
2023-03-04T09:48:14.271Z,622.93
2023-03-04T09:49:14.257Z,622.93
2023-03-04T09:50:14.228Z,622.91
2023-03-04T09:51:14.230Z,622.94
2023-03-04T09:52:14.207Z,622.93
2023-03-04T09:53:14.204Z,622.92
2023-03-04T09:54:14.182Z,622.93
2023-03-04T09:55:14.191Z,622.92
2023-03-04T09:56:14.190Z,622.89
2023-03-04T09:57:14.169Z,622.91
2023-03-04T09:58:14.148Z,622.91
2023-03-04T09:59:14.135Z,622.92
2023-03-04T10:00:14.209Z,622.91
2023-03-04T10:01:14.107Z,622.91
2023-03-04T10:02:14.112Z,622.94
2023-03-04T10:03:14.154Z,622.90
2023-03-04T10:04:14.101Z,622.90
2023-03-04T10:05:14.061Z,622.89
2023-03-04T10:06:14.067Z,622.92
2023-03-04T10:07:14.052Z,622.91
2023-03-04T10:08:14.060Z,622.92
2023-03-04T10:09:14.033Z,622.91
2023-03-04T10:10:14.004Z,622.94
2023-03-04T10:11:14.158Z,622.92
2023-03-04T10:12:14.027Z,622.90
2023-03-04T10:13:13.987Z,622.91
2023-03-04T10:14:13.984Z,622.92
2023-03-04T10:15:13.952Z,622.90
2023-03-04T10:16:14.002Z,622.88
2023-03-04T10:17:13.939Z,622.89
2023-03-04T10:18:13.930Z,622.87
2023-03-04T10:19:13.957Z,622.89
2023-03-04T10:20:13.909Z,622.85
2023-03-04T10:21:13.882Z,622.85
2023-03-04T10:22:13.889Z,622.85
2023-03-04T10:23:13.866Z,622.87
2023-03-04T10:24:13.880Z,622.89
2023-03-04T10:25:13.839Z,622.88
2023-03-04T10:26:13.831Z,622.90
2023-03-04T10:27:13.850Z,622.89
2023-03-04T10:28:13.823Z,622.86
2023-03-04T10:29:13.794Z,622.89
2023-03-04T10:30:13.790Z,622.86
2023-03-04T10:31:13.850Z,622.86
2023-03-04T10:32:13.790Z,622.90
2023-03-04T10:33:13.749Z,622.87
2023-03-04T10:34:13.741Z,622.87
2023-03-04T10:35:13.744Z,622.91
2023-03-04T10:36:13.728Z,622.93
2023-03-04T10:37:13.717Z,622.91
2023-03-04T10:38:13.698Z,622.89
2023-03-04T10:39:13.679Z,622.91
2023-03-04T10:40:13.677Z,622.90
2023-03-04T10:41:13.685Z,622.90
2023-03-04T10:42:13.795Z,622.86
2023-03-04T10:43:13.649Z,622.89
2023-03-04T10:44:13.632Z,622.91
2023-03-04T10:45:13.608Z,622.87
2023-03-04T10:46:13.614Z,622.87
2023-03-04T10:47:13.611Z,622.85
2023-03-04T10:48:21.091Z,622.89
2023-03-04T10:49:13.561Z,622.87
2023-03-04T10:50:13.557Z,622.89
2023-03-04T10:51:13.554Z,622.87
2023-03-04T10:52:13.543Z,622.86
2023-03-04T10:53:13.523Z,622.86
2023-03-04T10:54:13.521Z,622.87
2023-03-04T10:55:13.494Z,622.88
2023-03-04T10:56:13.487Z,622.89
2023-03-04T10:57:13.489Z,622.89
2023-03-04T10:58:13.466Z,622.89
2023-03-04T10:59:13.470Z,622.89
2023-03-04T11:00:13.457Z,622.88
2023-03-04T11:01:13.497Z,622.88
2023-03-04T11:02:13.419Z,622.84
2023-03-04T11:03:13.411Z,622.83
2023-03-04T11:04:13.489Z,622.86
2023-03-04T11:05:13.397Z,622.85
2023-03-04T11:06:13.397Z,622.86
2023-03-04T11:07:13.385Z,622.85
2023-03-04T11:08:13.378Z,622.83
2023-03-04T11:09:13.346Z,622.85
2023-03-04T11:10:13.362Z,622.85
2023-03-04T11:11:13.332Z,622.84
2023-03-04T11:12:14.094Z,622.87
2023-03-04T11:13:13.309Z,622.86
2023-03-04T11:14:13.284Z,622.87
2023-03-04T11:15:13.311Z,622.87
2023-03-04T11:16:13.307Z,622.86
2023-03-04T11:17:13.246Z,622.86
2023-03-04T11:18:13.272Z,622.86
2023-03-04T11:19:13.227Z,622.85
2023-03-04T11:20:13.258Z,622.83
2023-03-04T11:21:13.200Z,622.83
2023-03-04T11:22:13.193Z,622.88
2023-03-04T11:23:13.178Z,622.88
2023-03-04T11:24:27.081Z,622.88
2023-03-04T11:25:13.169Z,622.89
2023-03-04T11:26:13.148Z,622.90
2023-03-04T11:27:13.135Z,622.90
2023-03-04T11:28:13.129Z,622.88
2023-03-04T11:29:13.140Z,622.85
2023-03-04T11:30:13.129Z,622.83
2023-03-04T11:31:13.110Z,622.87
2023-03-04T11:32:13.262Z,622.88
2023-03-04T11:33:13.084Z,622.86
2023-03-04T11:34:13.754Z,622.87
2023-03-04T11:35:13.067Z,622.84
2023-03-04T11:36:13.047Z,622.87
2023-03-04T11:37:13.032Z,622.87
2023-03-04T11:38:13.031Z,622.86
2023-03-04T11:39:13.048Z,622.87
2023-03-04T11:40:13.037Z,622.84
2023-03-04T11:41:13.012Z,622.86
2023-03-04T11:42:12.999Z,622.85
2023-03-04T11:43:12.986Z,622.85
2023-03-04T11:44:12.974Z,622.86
2023-03-04T11:45:27.391Z,622.85
2023-03-04T11:46:12.996Z,622.88
2023-03-04T11:47:12.965Z,622.86
2023-03-04T11:48:12.958Z,622.83
2023-03-04T11:49:12.920Z,622.86
2023-03-04T11:50:12.944Z,622.86
2023-03-04T11:51:13.142Z,622.88
2023-03-04T11:52:12.895Z,622.89
2023-03-04T11:53:12.881Z,622.86
2023-03-04T11:54:12.882Z,622.86
2023-03-04T11:55:12.860Z,622.88
2023-03-04T11:56:12.859Z,622.90
2023-03-04T11:57:12.939Z,622.89
2023-03-04T11:58:12.854Z,622.87
2023-03-04T11:59:12.848Z,622.89
2023-03-04T12:00:12.807Z,622.87
2023-03-04T12:01:12.798Z,622.87
2023-03-04T12:02:12.801Z,622.87
2023-03-04T12:03:13.208Z,622.87
2023-03-04T12:04:12.883Z,622.87
2023-03-04T12:05:12.752Z,622.87
2023-03-04T12:06:12.763Z,622.89
2023-03-04T12:07:12.725Z,622.90
2023-03-04T12:08:12.738Z,622.89
2023-03-04T12:09:12.743Z,622.89
2023-03-04T12:10:12.733Z,622.91
2023-03-04T12:11:12.695Z,622.90
2023-03-04T12:12:12.687Z,622.91
2023-03-04T12:13:12.659Z,622.89
2023-03-04T12:14:12.663Z,622.89
2023-03-04T12:15:12.642Z,622.93
2023-03-04T12:16:12.676Z,622.94
2023-03-04T12:17:12.636Z,622.97
2023-03-04T12:18:12.623Z,623.12
2023-03-04T12:19:12.620Z,623.22
2023-03-04T12:20:12.588Z,623.48
2023-03-04T12:21:12.587Z,623.59
2023-03-04T12:22:12.578Z,623.61
2023-03-04T12:23:12.560Z,623.96
2023-03-04T12:24:12.549Z,625.24
2023-03-04T12:25:12.545Z,626.14
2023-03-04T12:26:12.528Z,625.58
2023-03-04T12:27:12.524Z,625.02
2023-03-04T12:28:12.503Z,626.06